sensor_id;sensor_type;location;lat;lon;timestamp;temperature;humidity
14962;DHT22;56489;53.166;10.864;2022-12-24T00:00:56;5.30;99.90
14962;DHT22;56489;53.166;10.864;2022-12-24T00:03:23;5.30;99.90
14962;DHT22;56489;53.166;10.864;2022-12-24T00:05:50;5.20;99.90
14962;DHT22;56489;53.166;10.864;2022-12-24T00:08:17;5.20;99.90
14962;DHT22;56489;53.166;10.864;2022-12-24T00:10:44;5.20;99.90
14962;DHT22;56489;53.166;10.864;2022-12-24T00:13:10;5.20;99.90
14962;DHT22;56489;53.166;10.864;2022-12-24T00:15:37;5.20;99.90
14962;DHT22;56489;53.166;10.864;2022-12-24T00:18:04;5.30;99.90
14962;DHT22;56489;53.166;10.864;2022-12-24T00:20:30;5.30;99.90
14962;DHT22;56489;53.166;10.864;2022-12-24T00:22:57;5.30;99.90
14962;DHT22;56489;53.166;10.864;2022-12-24T00:25:24;5.30;99.90
14962;DHT22;56489;53.166;10.864;2022-12-24T00:27:50;5.20;99.90
14962;DHT22;56489;53.166;10.864;2022-12-24T00:30:17;5.20;99.90
14962;DHT22;56489;53.166;10.864;2022-12-24T00:32:43;5.20;99.90
14962;DHT22;56489;53.166;10.864;2022-12-24T00:35:10;5.30;99.90
14962;DHT22;56489;53.166;10.864;2022-12-24T00:37:37;5.20;99.90
14962;DHT22;56489;53.166;10.864;2022-12-24T00:40:03;5.20;99.90
14962;DHT22;56489;53.166;10.864;2022-12-24T00:42:30;5.30;99.90
14962;DHT22;56489;53.166;10.864;2022-12-24T00:44:56;5.20;99.90
14962;DHT22;56489;53.166;10.864;2022-12-24T00:47:23;5.20;99.90
14962;DHT22;56489;53.166;10.864;2022-12-24T00:49:50;5.20;99.90
14962;DHT22;56489;53.166;10.864;2022-12-24T00:52:17;5.20;99.90
14962;DHT22;56489;53.166;10.864;2022-12-24T00:54:44;5.20;99.90
14962;DHT22;56489;53.166;10.864;2022-12-24T00:57:10;5.20;99.90
14962;DHT22;56489;53.166;10.864;2022-12-24T00:59:37;5.20;99.90
14962;DHT22;56489;53.166;10.864;2022-12-24T01:02:03;5.20;99.90
14962;DHT22;56489;53.166;10.864;2022-12-24T01:04:31;5.20;99.90
14962;DHT22;56489;53.166;10.864;2022-12-24T01:07:16;5.20;99.90
14962;DHT22;56489;53.166;10.864;2022-12-24T01:09:43;5.20;99.90
14962;DHT22;56489;53.166;10.864;2022-12-24T01:12:09;5.20;99.90
14962;DHT22;56489;53.166;10.864;2022-12-24T01:14:36;5.20;99.90
14962;DHT22;56489;53.166;10.864;2022-12-24T01:17:03;5.20;99.90
14962;DHT22;56489;53.166;10.864;2022-12-24T01:19:30;5.20;99.90
14962;DHT22;56489;53.166;10.864;2022-12-24T01:21:57;5.10;99.90
14962;DHT22;56489;53.166;10.864;2022-12-24T01:24:23;5.20;99.90
14962;DHT22;56489;53.166;10.864;2022-12-24T01:26:50;5.10;99.90
14962;DHT22;56489;53.166;10.864;2022-12-24T01:29:17;5.10;99.90
14962;DHT22;56489;53.166;10.864;2022-12-24T01:31:43;5.10;99.90
14962;DHT22;56489;53.166;10.864;2022-12-24T01:34:10;5.10;99.90
14962;DHT22;56489;53.166;10.864;2022-12-24T01:36:37;5.10;99.90
14962;DHT22;56489;53.166;10.864;2022-12-24T01:39:04;5.10;99.90
14962;DHT22;56489;53.166;10.864;2022-12-24T01:41:31;5.10;99.90
14962;DHT22;56489;53.166;10.864;2022-12-24T01:46:46;5.10;99.90
14962;DHT22;56489;53.166;10.864;2022-12-24T01:49:13;5.10;99.90
14962;DHT22;56489;53.166;10.864;2022-12-24T01:51:43;5.10;99.90
14962;DHT22;56489;53.166;10.864;2022-12-24T01:56:42;5.10;99.90
14962;DHT22;56489;53.166;10.864;2022-12-24T01:59:13;5.10;99.90
14962;DHT22;56489;53.166;10.864;2022-12-24T02:01:40;5.10;99.90
14962;DHT22;56489;53.166;10.864;2022-12-24T02:04:11;5.00;99.90
14962;DHT22;56489;53.166;10.864;2022-12-24T02:06:38;5.10;99.90
14962;DHT22;56489;53.166;10.864;2022-12-24T02:09:05;5.10;99.90
14962;DHT22;56489;53.166;10.864;2022-12-24T02:11:32;5.00;99.90
14962;DHT22;56489;53.166;10.864;2022-12-24T02:13:59;5.00;99.90
14962;DHT22;56489;53.166;10.864;2022-12-24T02:16:38;5.00;99.90
14962;DHT22;56489;53.166;10.864;2022-12-24T02:27:08;5.00;99.90
14962;DHT22;56489;53.166;10.864;2022-12-24T02:32:30;5.00;99.90
14962;DHT22;56489;53.166;10.864;2022-12-24T02:35:09;5.00;99.90
14962;DHT22;56489;53.166;10.864;2022-12-24T02:37:38;5.00;99.90
14962;DHT22;56489;53.166;10.864;2022-12-24T02:40:10;5.00;99.90
14962;DHT22;56489;53.166;10.864;2022-12-24T02:42:43;5.00;99.90
14962;DHT22;56489;53.166;10.864;2022-12-24T02:45:13;5.00;99.90
14962;DHT22;56489;53.166;10.864;2022-12-24T02:47:40;5.00;99.90
14962;DHT22;56489;53.166;10.864;2022-12-24T02:50:09;5.00;99.90
14962;DHT22;56489;53.166;10.864;2022-12-24T02:52:40;5.00;99.90
14962;DHT22;56489;53.166;10.864;2022-12-24T02:55:11;5.00;99.90
14962;DHT22;56489;53.166;10.864;2022-12-24T02:57:45;5.00;99.90
14962;DHT22;56489;53.166;10.864;2022-12-24T03:00:15;5.00;99.90
14962;DHT22;56489;53.166;10.864;2022-12-24T03:02:53;5.00;99.90
14962;DHT22;56489;53.166;10.864;2022-12-24T03:05:37;5.00;99.90
14962;DHT22;56489;53.166;10.864;2022-12-24T03:08:18;5.00;99.90
14962;DHT22;56489;53.166;10.864;2022-12-24T03:13:18;5.00;99.90
14962;DHT22;56489;53.166;10.864;2022-12-24T03:15:46;5.10;99.90
14962;DHT22;56489;53.166;10.864;2022-12-24T03:18:14;5.00;99.90
14962;DHT22;56489;53.166;10.864;2022-12-24T03:20:43;5.00;99.90
14962;DHT22;56489;53.166;10.864;2022-12-24T03:23:10;5.00;99.90
14962;DHT22;56489;53.166;10.864;2022-12-24T03:25:39;5.00;99.90
14962;DHT22;56489;53.166;10.864;2022-12-24T03:28:07;5.00;99.90
14962;DHT22;56489;53.166;10.864;2022-12-24T03:30:37;5.00;99.90
14962;DHT22;56489;53.166;10.864;2022-12-24T03:33:04;5.00;99.90
14962;DHT22;56489;53.166;10.864;2022-12-24T03:35:31;5.00;99.90
14962;DHT22;56489;53.166;10.864;2022-12-24T03:37:58;5.00;99.90
14962;DHT22;56489;53.166;10.864;2022-12-24T03:40:25;5.00;99.90
14962;DHT22;56489;53.166;10.864;2022-12-24T03:42:51;5.00;99.90
14962;DHT22;56489;53.166;10.864;2022-12-24T03:45:18;5.00;99.90
14962;DHT22;56489;53.166;10.864;2022-12-24T03:47:45;5.00;99.90
14962;DHT22;56489;53.166;10.864;2022-12-24T03:50:11;5.00;99.90
14962;DHT22;56489;53.166;10.864;2022-12-24T03:52:38;5.00;99.90
14962;DHT22;56489;53.166;10.864;2022-12-24T03:55:04;5.00;99.90
14962;DHT22;56489;53.166;10.864;2022-12-24T03:57:32;5.00;99.90
14962;DHT22;56489;53.166;10.864;2022-12-24T03:59:58;5.00;99.90
14962;DHT22;56489;53.166;10.864;2022-12-24T04:02:25;5.00;99.90
14962;DHT22;56489;53.166;10.864;2022-12-24T04:04:52;5.00;99.90
14962;DHT22;56489;53.166;10.864;2022-12-24T04:07:19;5.00;99.90
14962;DHT22;56489;53.166;10.864;2022-12-24T04:09:45;5.00;99.90
14962;DHT22;56489;53.166;10.864;2022-12-24T04:12:12;5.00;99.90
14962;DHT22;56489;53.166;10.864;2022-12-24T04:14:39;5.00;99.90
14962;DHT22;56489;53.166;10.864;2022-12-24T04:17:06;5.00;99.90
14962;DHT22;56489;53.166;10.864;2022-12-24T04:19:32;5.00;99.90
14962;DHT22;56489;53.166;10.864;2022-12-24T04:21:59;5.00;99.90
14962;DHT22;56489;53.166;10.864;2022-12-24T04:24:26;4.90;99.90
14962;DHT22;56489;53.166;10.864;2022-12-24T04:26:53;4.90;99.90
14962;DHT22;56489;53.166;10.864;2022-12-24T04:29:20;4.90;99.90
14962;DHT22;56489;53.166;10.864;2022-12-24T04:31:47;5.00;99.90
14962;DHT22;56489;53.166;10.864;2022-12-24T04:34:13;5.00;99.90
14962;DHT22;56489;53.166;10.864;2022-12-24T04:36:40;5.00;99.90
14962;DHT22;56489;53.166;10.864;2022-12-24T04:39:07;5.00;99.90
14962;DHT22;56489;53.166;10.864;2022-12-24T04:41:34;5.10;99.90
14962;DHT22;56489;53.166;10.864;2022-12-24T04:44:00;5.00;99.90
14962;DHT22;56489;53.166;10.864;2022-12-24T04:46:27;5.00;99.90
14962;DHT22;56489;53.166;10.864;2022-12-24T04:48:58;5.10;99.90
14962;DHT22;56489;53.166;10.864;2022-12-24T04:51:25;5.00;99.90
14962;DHT22;56489;53.166;10.864;2022-12-24T04:53:52;5.00;99.90
14962;DHT22;56489;53.166;10.864;2022-12-24T04:56:20;5.00;99.90
14962;DHT22;56489;53.166;10.864;2022-12-24T04:58:47;5.00;99.90
14962;DHT22;56489;53.166;10.864;2022-12-24T05:01:16;5.00;99.90
14962;DHT22;56489;53.166;10.864;2022-12-24T05:03:43;5.00;99.90
14962;DHT22;56489;53.166;10.864;2022-12-24T05:06:11;5.00;99.90
14962;DHT22;56489;53.166;10.864;2022-12-24T05:08:38;5.00;99.90
14962;DHT22;56489;53.166;10.864;2022-12-24T05:11:05;5.00;99.90
14962;DHT22;56489;53.166;10.864;2022-12-24T05:13:32;5.00;99.90
14962;DHT22;56489;53.166;10.864;2022-12-24T05:16:10;4.90;99.90
14962;DHT22;56489;53.166;10.864;2022-12-24T05:18:36;4.90;99.90
14962;DHT22;56489;53.166;10.864;2022-12-24T05:21:07;4.90;99.90
14962;DHT22;56489;53.166;10.864;2022-12-24T05:23:34;4.90;99.90
14962;DHT22;56489;53.166;10.864;2022-12-24T05:26:29;4.90;99.90
14962;DHT22;56489;53.166;10.864;2022-12-24T05:28:57;4.90;99.90
14962;DHT22;56489;53.166;10.864;2022-12-24T05:31:25;4.90;99.90
14962;DHT22;56489;53.166;10.864;2022-12-24T05:33:52;4.90;99.90
14962;DHT22;56489;53.166;10.864;2022-12-24T05:36:20;4.90;99.90
14962;DHT22;56489;53.166;10.864;2022-12-24T05:38:47;4.80;99.90
14962;DHT22;56489;53.166;10.864;2022-12-24T05:41:14;4.80;99.90
14962;DHT22;56489;53.166;10.864;2022-12-24T05:43:41;4.80;99.90
14962;DHT22;56489;53.166;10.864;2022-12-24T05:46:08;4.90;99.90
14962;DHT22;56489;53.166;10.864;2022-12-24T05:48:36;4.90;99.90
14962;DHT22;56489;53.166;10.864;2022-12-24T05:51:04;4.90;99.90
14962;DHT22;56489;53.166;10.864;2022-12-24T05:53:32;5.40;99.90
14962;DHT22;56489;53.166;10.864;2022-12-24T05:56:03;4.90;99.90
14962;DHT22;56489;53.166;10.864;2022-12-24T05:58:30;4.80;99.90
14962;DHT22;56489;53.166;10.864;2022-12-24T06:00:57;4.80;99.90
14962;DHT22;56489;53.166;10.864;2022-12-24T06:03:23;4.80;99.90
14962;DHT22;56489;53.166;10.864;2022-12-24T06:06:04;4.80;99.90
14962;DHT22;56489;53.166;10.864;2022-12-24T06:08:31;4.80;99.90
14962;DHT22;56489;53.166;10.864;2022-12-24T06:11:01;4.80;99.90
14962;DHT22;56489;53.166;10.864;2022-12-24T06:13:27;4.80;99.90
14962;DHT22;56489;53.166;10.864;2022-12-24T06:15:55;4.80;99.90
14962;DHT22;56489;53.166;10.864;2022-12-24T06:18:22;4.80;99.90
14962;DHT22;56489;53.166;10.864;2022-12-24T06:20:53;4.80;99.90
14962;DHT22;56489;53.166;10.864;2022-12-24T06:23:19;4.80;99.90
14962;DHT22;56489;53.166;10.864;2022-12-24T06:25:46;4.80;99.90
14962;DHT22;56489;53.166;10.864;2022-12-24T06:28:13;4.80;99.90
14962;DHT22;56489;53.166;10.864;2022-12-24T06:30:40;4.80;99.90
14962;DHT22;56489;53.166;10.864;2022-12-24T06:33:08;4.80;99.90
14962;DHT22;56489;53.166;10.864;2022-12-24T06:35:35;4.80;99.90
14962;DHT22;56489;53.166;10.864;2022-12-24T06:38:01;4.80;99.90
14962;DHT22;56489;53.166;10.864;2022-12-24T06:40:28;4.90;99.90
14962;DHT22;56489;53.166;10.864;2022-12-24T06:42:54;4.90;99.90
14962;DHT22;56489;53.166;10.864;2022-12-24T06:45:21;4.90;99.90
14962;DHT22;56489;53.166;10.864;2022-12-24T06:47:48;4.90;99.90
14962;DHT22;56489;53.166;10.864;2022-12-24T06:50:15;4.90;99.90
14962;DHT22;56489;53.166;10.864;2022-12-24T06:52:41;4.90;99.90
14962;DHT22;56489;53.166;10.864;2022-12-24T06:55:08;4.90;99.90
14962;DHT22;56489;53.166;10.864;2022-12-24T06:57:35;4.90;99.90
14962;DHT22;56489;53.166;10.864;2022-12-24T07:00:02;4.80;99.90
14962;DHT22;56489;53.166;10.864;2022-12-24T07:02:31;4.80;99.90
14962;DHT22;56489;53.166;10.864;2022-12-24T07:04:58;4.90;99.90
14962;DHT22;56489;53.166;10.864;2022-12-24T07:07:24;6.00;99.90
14962;DHT22;56489;53.166;10.864;2022-12-24T07:09:51;4.80;99.90
14962;DHT22;56489;53.166;10.864;2022-12-24T07:12:17;4.80;99.90
14962;DHT22;56489;53.166;10.864;2022-12-24T07:14:44;4.80;99.90
14962;DHT22;56489;53.166;10.864;2022-12-24T07:17:11;4.80;99.90
14962;DHT22;56489;53.166;10.864;2022-12-24T07:19:38;4.80;99.90
14962;DHT22;56489;53.166;10.864;2022-12-24T07:22:04;4.80;99.90
14962;DHT22;56489;53.166;10.864;2022-12-24T07:24:40;4.80;99.90
14962;DHT22;56489;53.166;10.864;2022-12-24T07:27:06;4.90;99.90
14962;DHT22;56489;53.166;10.864;2022-12-24T07:29:34;4.90;99.90
14962;DHT22;56489;53.166;10.864;2022-12-24T07:32:01;4.90;99.90
14962;DHT22;56489;53.166;10.864;2022-12-24T07:34:27;4.90;99.90
14962;DHT22;56489;53.166;10.864;2022-12-24T07:36:54;4.90;99.90
14962;DHT22;56489;53.166;10.864;2022-12-24T07:39:21;4.90;99.90
14962;DHT22;56489;53.166;10.864;2022-12-24T07:41:48;4.90;99.90
14962;DHT22;56489;53.166;10.864;2022-12-24T07:44:16;4.90;99.90
14962;DHT22;56489;53.166;10.864;2022-12-24T07:46:42;4.90;99.90
14962;DHT22;56489;53.166;10.864;2022-12-24T07:49:10;4.90;99.90
14962;DHT22;56489;53.166;10.864;2022-12-24T07:51:37;4.90;99.90
14962;DHT22;56489;53.166;10.864;2022-12-24T07:54:03;4.90;99.90
14962;DHT22;56489;53.166;10.864;2022-12-24T07:56:33;4.90;99.90
14962;DHT22;56489;53.166;10.864;2022-12-24T07:59:00;4.90;99.90
14962;DHT22;56489;53.166;10.864;2022-12-24T08:01:27;4.90;99.90
14962;DHT22;56489;53.166;10.864;2022-12-24T08:03:53;4.90;99.90
14962;DHT22;56489;53.166;10.864;2022-12-24T08:06:21;4.90;99.90
14962;DHT22;56489;53.166;10.864;2022-12-24T08:08:47;4.90;99.90
14962;DHT22;56489;53.166;10.864;2022-12-24T08:11:15;5.00;99.90
14962;DHT22;56489;53.166;10.864;2022-12-24T08:13:42;4.90;99.90
14962;DHT22;56489;53.166;10.864;2022-12-24T08:16:08;4.90;99.90
14962;DHT22;56489;53.166;10.864;2022-12-24T08:18:35;4.90;99.90
14962;DHT22;56489;53.166;10.864;2022-12-24T08:21:02;4.90;99.90
14962;DHT22;56489;53.166;10.864;2022-12-24T08:23:29;4.90;99.90
14962;DHT22;56489;53.166;10.864;2022-12-24T08:25:55;5.00;99.90
14962;DHT22;56489;53.166;10.864;2022-12-24T08:28:22;5.00;99.90
14962;DHT22;56489;53.166;10.864;2022-12-24T08:30:48;5.00;99.90
14962;DHT22;56489;53.166;10.864;2022-12-24T08:33:16;5.00;99.90
14962;DHT22;56489;53.166;10.864;2022-12-24T08:35:46;5.00;99.90
14962;DHT22;56489;53.166;10.864;2022-12-24T08:38:12;5.10;99.90
14962;DHT22;56489;53.166;10.864;2022-12-24T08:40:39;5.10;99.90
14962;DHT22;56489;53.166;10.864;2022-12-24T08:43:06;5.10;99.90
14962;DHT22;56489;53.166;10.864;2022-12-24T08:45:33;5.20;99.90
14962;DHT22;56489;53.166;10.864;2022-12-24T08:48:06;5.20;99.90
14962;DHT22;56489;53.166;10.864;2022-12-24T08:50:33;5.20;99.90
14962;DHT22;56489;53.166;10.864;2022-12-24T08:53:00;5.20;99.90
14962;DHT22;56489;53.166;10.864;2022-12-24T08:55:27;5.30;99.90
14962;DHT22;56489;53.166;10.864;2022-12-24T08:57:54;5.30;99.90
14962;DHT22;56489;53.166;10.864;2022-12-24T09:00:21;5.30;99.90
14962;DHT22;56489;53.166;10.864;2022-12-24T09:02:48;5.30;99.90
14962;DHT22;56489;53.166;10.864;2022-12-24T09:05:15;5.30;99.90
14962;DHT22;56489;53.166;10.864;2022-12-24T09:07:41;5.40;99.90
14962;DHT22;56489;53.166;10.864;2022-12-24T09:10:08;5.30;99.90
14962;DHT22;56489;53.166;10.864;2022-12-24T09:12:36;5.30;99.90
14962;DHT22;56489;53.166;10.864;2022-12-24T09:15:03;5.30;99.90
14962;DHT22;56489;53.166;10.864;2022-12-24T09:17:31;5.40;99.90
14962;DHT22;56489;53.166;10.864;2022-12-24T09:19:58;5.40;99.90
14962;DHT22;56489;53.166;10.864;2022-12-24T09:22:24;5.40;99.90
14962;DHT22;56489;53.166;10.864;2022-12-24T09:24:54;5.40;99.90
14962;DHT22;56489;53.166;10.864;2022-12-24T09:27:21;5.40;99.90
14962;DHT22;56489;53.166;10.864;2022-12-24T09:29:48;5.50;99.90
14962;DHT22;56489;53.166;10.864;2022-12-24T09:32:15;5.50;99.90
14962;DHT22;56489;53.166;10.864;2022-12-24T09:34:42;5.50;99.90
14962;DHT22;56489;53.166;10.864;2022-12-24T09:37:08;5.50;99.90
14962;DHT22;56489;53.166;10.864;2022-12-24T09:39:35;5.50;99.90
14962;DHT22;56489;53.166;10.864;2022-12-24T09:42:06;5.50;99.90
14962;DHT22;56489;53.166;10.864;2022-12-24T09:47:21;5.60;99.90
14962;DHT22;56489;53.166;10.864;2022-12-24T09:49:51;5.60;99.90
14962;DHT22;56489;53.166;10.864;2022-12-24T09:52:37;5.60;99.90
14962;DHT22;56489;53.166;10.864;2022-12-24T09:55:11;5.60;99.90
14962;DHT22;56489;53.166;10.864;2022-12-24T09:57:40;5.60;99.90
14962;DHT22;56489;53.166;10.864;2022-12-24T10:00:30;5.70;99.90
14962;DHT22;56489;53.166;10.864;2022-12-24T10:02:54;5.70;99.90
14962;DHT22;56489;53.166;10.864;2022-12-24T10:05:36;5.80;99.90
14962;DHT22;56489;53.166;10.864;2022-12-24T10:08:10;5.80;99.90
14962;DHT22;56489;53.166;10.864;2022-12-24T10:10:41;5.80;99.90
14962;DHT22;56489;53.166;10.864;2022-12-24T10:16:02;5.90;99.90
14962;DHT22;56489;53.166;10.864;2022-12-24T10:18:34;6.00;99.90
14962;DHT22;56489;53.166;10.864;2022-12-24T10:21:10;6.00;99.90
14962;DHT22;56489;53.166;10.864;2022-12-24T10:23:40;6.00;99.90
14962;DHT22;56489;53.166;10.864;2022-12-24T10:26:21;6.10;99.90
14962;DHT22;56489;53.166;10.864;2022-12-24T10:28:56;6.10;99.90
14962;DHT22;56489;53.166;10.864;2022-12-24T10:31:24;6.10;99.90
14962;DHT22;56489;53.166;10.864;2022-12-24T10:33:56;6.20;99.90
14962;DHT22;56489;53.166;10.864;2022-12-24T10:36:26;6.20;99.90
14962;DHT22;56489;53.166;10.864;2022-12-24T10:38:53;6.20;99.90
14962;DHT22;56489;53.166;10.864;2022-12-24T10:41:20;6.30;99.90
14962;DHT22;56489;53.166;10.864;2022-12-24T10:43:47;6.30;99.90
14962;DHT22;56489;53.166;10.864;2022-12-24T10:48:43;6.50;99.90
14962;DHT22;56489;53.166;10.864;2022-12-24T10:51:24;6.60;99.90
14962;DHT22;56489;53.166;10.864;2022-12-24T10:53:55;6.70;99.90
14962;DHT22;56489;53.166;10.864;2022-12-24T10:56:23;6.70;99.90
14962;DHT22;56489;53.166;10.864;2022-12-24T10:58:50;6.80;99.90
14962;DHT22;56489;53.166;10.864;2022-12-24T11:01:19;6.80;99.90
14962;DHT22;56489;53.166;10.864;2022-12-24T11:03:58;6.80;99.90
14962;DHT22;56489;53.166;10.864;2022-12-24T11:06:25;6.90;99.90
14962;DHT22;56489;53.166;10.864;2022-12-24T11:08:52;6.90;99.90
14962;DHT22;56489;53.166;10.864;2022-12-24T11:11:19;7.00;99.90
14962;DHT22;56489;53.166;10.864;2022-12-24T11:16:26;7.20;99.90
14962;DHT22;56489;53.166;10.864;2022-12-24T11:18:56;7.30;99.90
14962;DHT22;56489;53.166;10.864;2022-12-24T11:21:24;7.40;99.90
14962;DHT22;56489;53.166;10.864;2022-12-24T11:23:52;7.50;99.90
14962;DHT22;56489;53.166;10.864;2022-12-24T11:26:21;7.60;99.90
14962;DHT22;56489;53.166;10.864;2022-12-24T11:31:45;7.70;99.90
14962;DHT22;56489;53.166;10.864;2022-12-24T11:34:28;7.70;99.90
14962;DHT22;56489;53.166;10.864;2022-12-24T11:37:06;7.70;99.90
14962;DHT22;56489;53.166;10.864;2022-12-24T11:39:40;7.70;99.90
14962;DHT22;56489;53.166;10.864;2022-12-24T11:44:55;7.80;99.90
14962;DHT22;56489;53.166;10.864;2022-12-24T11:47:36;7.80;99.90
14962;DHT22;56489;53.166;10.864;2022-12-24T11:52:51;7.70;99.90
14962;DHT22;56489;53.166;10.864;2022-12-24T11:55:23;7.70;99.90
14962;DHT22;56489;53.166;10.864;2022-12-24T11:57:55;7.30;99.90
14962;DHT22;56489;53.166;10.864;2022-12-24T12:00:23;8.00;99.90
14962;DHT22;56489;53.166;10.864;2022-12-24T12:02:50;8.10;99.90
14962;DHT22;56489;53.166;10.864;2022-12-24T12:05:21;8.20;99.90
14962;DHT22;56489;53.166;10.864;2022-12-24T12:07:51;8.20;99.90
14962;DHT22;56489;53.166;10.864;2022-12-24T12:10:22;8.30;99.90
14962;DHT22;56489;53.166;10.864;2022-12-24T12:12:56;8.40;99.90
14962;DHT22;56489;53.166;10.864;2022-12-24T12:15:27;8.40;99.90
14962;DHT22;56489;53.166;10.864;2022-12-24T12:18:01;8.50;99.90
14962;DHT22;56489;53.166;10.864;2022-12-24T12:20:31;8.40;99.90
14962;DHT22;56489;53.166;10.864;2022-12-24T12:23:15;8.30;99.90
14962;DHT22;56489;53.166;10.864;2022-12-24T12:28:17;8.30;99.90
14962;DHT22;56489;53.166;10.864;2022-12-24T12:30:45;8.30;99.90
14962;DHT22;56489;53.166;10.864;2022-12-24T12:34:16;8.40;99.90
14962;DHT22;56489;53.166;10.864;2022-12-24T12:36:10;8.40;99.90
14962;DHT22;56489;53.166;10.864;2022-12-24T12:38:38;8.50;99.90
14962;DHT22;56489;53.166;10.864;2022-12-24T12:41:21;8.50;99.90
14962;DHT22;56489;53.166;10.864;2022-12-24T12:44:01;8.50;99.90
14962;DHT22;56489;53.166;10.864;2022-12-24T12:56:48;8.60;99.90
14962;DHT22;56489;53.166;10.864;2022-12-24T12:59:19;8.60;99.90
14962;DHT22;56489;53.166;10.864;2022-12-24T13:01:57;8.50;99.90
14962;DHT22;56489;53.166;10.864;2022-12-24T13:04:39;8.40;99.90
14962;DHT22;56489;53.166;10.864;2022-12-24T13:15:28;8.50;99.90
14962;DHT22;56489;53.166;10.864;2022-12-24T13:18:03;8.50;99.90
14962;DHT22;56489;53.166;10.864;2022-12-24T13:20:34;8.50;99.90
14962;DHT22;56489;53.166;10.864;2022-12-24T13:23:10;8.40;99.90
14962;DHT22;56489;53.166;10.864;2022-12-24T13:25:39;8.30;99.90
14962;DHT22;56489;53.166;10.864;2022-12-24T13:28:16;8.30;99.90
14962;DHT22;56489;53.166;10.864;2022-12-24T13:30:43;8.40;99.90
14962;DHT22;56489;53.166;10.864;2022-12-24T13:33:11;8.40;99.90
14962;DHT22;56489;53.166;10.864;2022-12-24T13:35:57;8.40;99.90
14962;DHT22;56489;53.166;10.864;2022-12-24T13:40:54;8.40;99.90
14962;DHT22;56489;53.166;10.864;2022-12-24T13:43:21;8.40;99.90
14962;DHT22;56489;53.166;10.864;2022-12-24T13:45:48;8.40;99.90
14962;DHT22;56489;53.166;10.864;2022-12-24T13:48:26;8.30;99.90
14962;DHT22;56489;53.166;10.864;2022-12-24T13:50:54;8.30;99.90
14962;DHT22;56489;53.166;10.864;2022-12-24T13:55:50;8.20;99.90
14962;DHT22;56489;53.166;10.864;2022-12-24T13:58:17;8.20;99.90
14962;DHT22;56489;53.166;10.864;2022-12-24T14:00:56;8.20;99.90
14962;DHT22;56489;53.166;10.864;2022-12-24T14:03:25;8.20;99.90
14962;DHT22;56489;53.166;10.864;2022-12-24T14:06:00;8.10;99.90
14962;DHT22;56489;53.166;10.864;2022-12-24T14:08:30;8.10;99.90
14962;DHT22;56489;53.166;10.864;2022-12-24T14:11:01;8.00;99.90
14962;DHT22;56489;53.166;10.864;2022-12-24T14:18:31;7.70;99.90
14962;DHT22;56489;53.166;10.864;2022-12-24T14:20:59;7.70;99.90
14962;DHT22;56489;53.166;10.864;2022-12-24T14:23:32;7.60;99.90
14962;DHT22;56489;53.166;10.864;2022-12-24T14:26:01;7.50;99.90
14962;DHT22;56489;53.166;10.864;2022-12-24T14:28:31;7.40;99.90
14962;DHT22;56489;53.166;10.864;2022-12-24T14:31:00;7.40;99.90
14962;DHT22;56489;53.166;10.864;2022-12-24T14:33:28;7.30;99.90
14962;DHT22;56489;53.166;10.864;2022-12-24T14:35:55;7.20;99.90
14962;DHT22;56489;53.166;10.864;2022-12-24T14:38:21;7.00;99.90
14962;DHT22;56489;53.166;10.864;2022-12-24T14:43:52;7.00;99.90
14962;DHT22;56489;53.166;10.864;2022-12-24T14:46:23;7.00;99.90
14962;DHT22;56489;53.166;10.864;2022-12-24T14:48:56;6.80;99.90
14962;DHT22;56489;53.166;10.864;2022-12-24T14:51:27;6.90;99.90
14962;DHT22;56489;53.166;10.864;2022-12-24T14:54:15;6.80;99.90
14962;DHT22;56489;53.166;10.864;2022-12-24T14:56:44;6.70;99.90
14962;DHT22;56489;53.166;10.864;2022-12-24T14:59:17;6.70;99.90
14962;DHT22;56489;53.166;10.864;2022-12-24T15:01:45;6.60;99.90
14962;DHT22;56489;53.166;10.864;2022-12-24T15:04:15;6.50;99.90
14962;DHT22;56489;53.166;10.864;2022-12-24T15:09:13;6.30;99.90
14962;DHT22;56489;53.166;10.864;2022-12-24T15:11:42;6.30;99.90
14962;DHT22;56489;53.166;10.864;2022-12-24T15:14:10;6.20;99.90
14962;DHT22;56489;53.166;10.864;2022-12-24T15:16:37;6.20;99.90
14962;DHT22;56489;53.166;10.864;2022-12-24T15:19:05;6.20;99.90
14962;DHT22;56489;53.166;10.864;2022-12-24T15:21:35;6.20;99.90
14962;DHT22;56489;53.166;10.864;2022-12-24T15:24:03;6.20;99.90
14962;DHT22;56489;53.166;10.864;2022-12-24T15:26:30;6.20;99.90
14962;DHT22;56489;53.166;10.864;2022-12-24T15:28:58;6.20;99.90
14962;DHT22;56489;53.166;10.864;2022-12-24T15:31:29;6.20;99.90
14962;DHT22;56489;53.166;10.864;2022-12-24T15:33:56;6.10;99.90
14962;DHT22;56489;53.166;10.864;2022-12-24T15:36:25;6.10;99.90
14962;DHT22;56489;53.166;10.864;2022-12-24T15:38:53;6.10;99.90
14962;DHT22;56489;53.166;10.864;2022-12-24T15:43:46;6.20;99.90
14962;DHT22;56489;53.166;10.864;2022-12-24T15:46:18;6.20;99.90
14962;DHT22;56489;53.166;10.864;2022-12-24T15:48:45;6.30;99.90
14962;DHT22;56489;53.166;10.864;2022-12-24T15:51:19;6.40;99.90
14962;DHT22;56489;53.166;10.864;2022-12-24T15:53:46;6.40;99.90
14962;DHT22;56489;53.166;10.864;2022-12-24T15:58:53;6.50;99.90
14962;DHT22;56489;53.166;10.864;2022-12-24T16:01:36;6.60;99.90
14962;DHT22;56489;53.166;10.864;2022-12-24T16:04:11;6.60;99.90
14962;DHT22;56489;53.166;10.864;2022-12-24T16:06:59;6.60;99.90
14962;DHT22;56489;53.166;10.864;2022-12-24T16:09:35;6.70;99.90
14962;DHT22;56489;53.166;10.864;2022-12-24T16:12:10;6.70;99.90
14962;DHT22;56489;53.166;10.864;2022-12-24T16:14:38;6.70;99.90
14962;DHT22;56489;53.166;10.864;2022-12-24T16:17:15;6.70;99.90
14962;DHT22;56489;53.166;10.864;2022-12-24T16:19:45;6.70;99.90
14962;DHT22;56489;53.166;10.864;2022-12-24T16:22:13;6.80;99.90
14962;DHT22;56489;53.166;10.864;2022-12-24T16:25:43;6.90;99.90
14962;DHT22;56489;53.166;10.864;2022-12-24T16:27:46;7.00;99.90
14962;DHT22;56489;53.166;10.864;2022-12-24T16:30:12;7.20;99.90
14962;DHT22;56489;53.166;10.864;2022-12-24T16:32:39;7.20;99.90
14962;DHT22;56489;53.166;10.864;2022-12-24T16:35:23;7.30;99.90
14962;DHT22;56489;53.166;10.864;2022-12-24T16:37:51;7.40;99.90
14962;DHT22;56489;53.166;10.864;2022-12-24T16:40:17;7.40;99.90
14962;DHT22;56489;53.166;10.864;2022-12-24T16:42:52;7.50;99.90
14962;DHT22;56489;53.166;10.864;2022-12-24T16:45:37;7.50;99.90
14962;DHT22;56489;53.166;10.864;2022-12-24T16:48:04;7.50;99.90
14962;DHT22;56489;53.166;10.864;2022-12-24T16:50:31;7.60;99.90
14962;DHT22;56489;53.166;10.864;2022-12-24T16:52:58;7.60;99.90
14962;DHT22;56489;53.166;10.864;2022-12-24T16:55:25;7.70;99.90
14962;DHT22;56489;53.166;10.864;2022-12-24T16:57:51;7.70;99.90
14962;DHT22;56489;53.166;10.864;2022-12-24T17:00:20;7.70;99.90
14962;DHT22;56489;53.166;10.864;2022-12-24T17:02:47;7.70;99.90